createdAt,value
2022-12-25T00:01:57.571Z,100.00
2022-12-25T00:04:26.243Z,100.00
2022-12-25T00:06:55.878Z,100.00
2022-12-25T00:09:24.589Z,100.00
2022-12-25T00:11:54.066Z,100.00
2022-12-25T00:14:22.767Z,100.00
2022-12-25T00:16:52.195Z,100.00
2022-12-25T00:19:20.863Z,100.00
2022-12-25T00:21:50.327Z,100.00
2022-12-25T00:24:19.787Z,100.00
2022-12-25T00:26:48.371Z,100.00
2022-12-25T00:29:17.769Z,100.00
2022-12-25T00:31:46.454Z,100.00
2022-12-25T00:34:15.174Z,100.00
2022-12-25T00:36:43.888Z,100.00
2022-12-25T00:39:13.442Z,100.00
2022-12-25T00:42:01.473Z,100.00
2022-12-25T00:44:30.138Z,100.00
2022-12-25T00:46:58.949Z,100.00
2022-12-25T00:49:28.535Z,100.00
2022-12-25T00:51:57.220Z,100.00
2022-12-25T00:54:25.876Z,100.00
2022-12-25T00:56:55.327Z,100.00
2022-12-25T00:59:24.949Z,100.00
2022-12-25T01:01:53.689Z,100.00
2022-12-25T01:04:22.493Z,100.00
2022-12-25T01:06:51.179Z,100.00
2022-12-25T01:09:39.165Z,100.00
2022-12-25T01:12:08.599Z,100.00
2022-12-25T01:14:37.992Z,100.00
2022-12-25T01:17:06.613Z,100.00
2022-12-25T01:19:35.212Z,100.00
2022-12-25T01:22:03.855Z,100.00
2022-12-25T01:24:32.536Z,100.00
2022-12-25T01:27:02.003Z,100.00
2022-12-25T01:29:30.673Z,100.00
2022-12-25T01:32:00.425Z,100.00
2022-12-25T01:34:29.189Z,100.00
2022-12-25T01:36:58.673Z,100.00
2022-12-25T01:39:27.338Z,100.00
2022-12-25T01:41:56.832Z,100.00
2022-12-25T01:44:37.381Z,100.00
2022-12-25T01:47:07.506Z,100.00
2022-12-25T01:49:40.895Z,100.00
2022-12-25T01:52:21.667Z,100.00
2022-12-25T01:55:04.435Z,100.00
2022-12-25T01:57:36.842Z,100.00
2022-12-25T02:00:08.421Z,100.00
2022-12-25T02:02:38.033Z,100.00
2022-12-25T02:05:27.635Z,100.00
2022-12-25T02:08:01.585Z,100.00
2022-12-25T02:10:31.201Z,100.00
2022-12-25T02:13:01.685Z,100.00
2022-12-25T02:16:06.924Z,100.00
2022-12-25T02:18:52.440Z,100.00
2022-12-25T02:22:24.822Z,100.00
2022-12-25T02:25:39.266Z,100.00
2022-12-25T02:28:45.347Z,100.00
2022-12-25T02:31:32.909Z,100.00
2022-12-25T02:34:26.707Z,100.00
2022-12-25T02:37:20.302Z,100.00
2022-12-25T02:40:24.047Z,100.00
2022-12-25T02:43:23.522Z,100.00
2022-12-25T02:46:20.008Z,100.00
2022-12-25T02:49:19.074Z,100.00
2022-12-25T02:52:29.981Z,100.00
2022-12-25T02:55:29.061Z,100.00
2022-12-25T02:58:26.362Z,100.00
2022-12-25T03:01:28.067Z,100.00
2022-12-25T03:04:25.010Z,100.00
2022-12-25T03:07:16.756Z,100.00
2022-12-25T03:10:34.207Z,100.00
2022-12-25T03:13:28.347Z,100.00
2022-12-25T03:16:16.434Z,100.00
2022-12-25T03:18:45.291Z,100.00
2022-12-25T03:21:33.507Z,100.00
2022-12-25T03:24:21.609Z,100.00
2022-12-25T03:26:55.830Z,100.00
2022-12-25T03:29:52.342Z,100.00
2022-12-25T03:32:44.484Z,100.00
2022-12-25T03:35:34.675Z,100.00
2022-12-25T03:38:42.185Z,100.00
2022-12-25T03:42:06.845Z,100.00
2022-12-25T03:45:43.080Z,100.00
2022-12-25T03:48:14.056Z,100.00
2022-12-25T03:51:28.958Z,100.00
2022-12-25T03:54:25.806Z,100.00
2022-12-25T03:57:14.660Z,100.00
2022-12-25T04:00:01.918Z,100.00
2022-12-25T04:02:49.881Z,100.00
2022-12-25T04:05:37.130Z,100.00
2022-12-25T04:08:24.302Z,100.00
2022-12-25T04:11:12.800Z,100.00
2022-12-25T04:14:00.780Z,100.00
2022-12-25T04:16:48.113Z,100.00
2022-12-25T04:19:35.996Z,100.00
2022-12-25T04:22:24.041Z,100.00
2022-12-25T04:25:11.369Z,100.00
2022-12-25T04:27:59.596Z,100.00
2022-12-25T04:30:46.868Z,100.00
2022-12-25T04:33:34.816Z,100.00
2022-12-25T04:36:09.359Z,100.00
2022-12-25T04:38:41.189Z,100.00
2022-12-25T04:41:13.604Z,100.00
2022-12-25T04:43:43.076Z,100.00
2022-12-25T04:46:12.668Z,100.00
2022-12-25T04:48:42.090Z,100.00
2022-12-25T04:51:22.647Z,100.00
2022-12-25T04:53:53.848Z,100.00
2022-12-25T04:56:23.437Z,100.00
2022-12-25T04:58:52.852Z,100.00
2022-12-25T05:01:21.624Z,100.00
2022-12-25T05:03:50.394Z,100.00
2022-12-25T05:06:20.359Z,100.00
2022-12-25T05:08:48.090Z,100.00
2022-12-25T05:11:17.333Z,100.00
2022-12-25T05:13:46.135Z,100.00
2022-12-25T05:16:20.418Z,100.00
2022-12-25T05:18:52.360Z,100.00
2022-12-25T05:21:22.426Z,100.00
2022-12-25T05:23:53.024Z,100.00
2022-12-25T05:26:27.185Z,100.00
2022-12-25T05:28:56.337Z,100.00
2022-12-25T05:31:25.947Z,100.00
2022-12-25T05:33:55.570Z,100.00
2022-12-25T05:36:25.204Z,100.00
2022-12-25T05:38:54.993Z,100.00
2022-12-25T05:41:26.813Z,100.00
2022-12-25T05:43:58.576Z,100.00
2022-12-25T05:46:27.214Z,100.00
2022-12-25T05:48:56.693Z,100.00
2022-12-25T05:51:26.195Z,100.00
2022-12-25T05:53:55.608Z,100.00
2022-12-25T05:56:24.297Z,100.00
2022-12-25T05:58:54.150Z,100.00
2022-12-25T06:01:27.932Z,100.00
2022-12-25T06:03:58.101Z,100.00
2022-12-25T06:06:26.899Z,100.00
2022-12-25T06:08:56.967Z,100.00
2022-12-25T06:11:26.481Z,100.00
2022-12-25T06:13:56.165Z,100.00
2022-12-25T06:16:25.713Z,100.00
2022-12-25T06:18:55.207Z,100.00
2022-12-25T06:21:24.690Z,100.00
2022-12-25T06:23:53.467Z,100.00
2022-12-25T06:26:22.178Z,100.00
2022-12-25T06:28:51.638Z,100.00
2022-12-25T06:31:23.868Z,100.00
2022-12-25T06:33:53.364Z,100.00
2022-12-25T06:36:27.613Z,100.00
2022-12-25T06:38:59.715Z,100.00
2022-12-25T06:41:31.219Z,100.00
2022-12-25T06:44:01.607Z,100.00
2022-12-25T06:46:31.340Z,100.00
2022-12-25T06:49:01.839Z,100.00
2022-12-25T06:51:33.142Z,100.00
2022-12-25T06:54:04.893Z,100.00
2022-12-25T06:56:35.370Z,100.00
2022-12-25T06:59:09.991Z,100.00
2022-12-25T07:01:57.555Z,100.00
2022-12-25T07:04:33.155Z,100.00
2022-12-25T07:07:08.629Z,100.00
2022-12-25T07:09:39.354Z,100.00
2022-12-25T07:12:26.026Z,100.00
2022-12-25T07:14:56.187Z,100.00
2022-12-25T07:17:25.658Z,100.00
2022-12-25T07:19:54.512Z,100.00
2022-12-25T07:22:24.489Z,100.00
2022-12-25T07:24:53.944Z,100.00
2022-12-25T07:27:22.609Z,100.00
2022-12-25T07:29:50.487Z,100.00
2022-12-25T07:32:19.323Z,100.00
2022-12-25T07:34:48.026Z,100.00
2022-12-25T07:37:16.749Z,100.00
2022-12-25T07:39:46.232Z,100.00
2022-12-25T07:42:14.925Z,100.00
2022-12-25T07:44:43.621Z,100.00
2022-12-25T07:47:11.345Z,100.00
2022-12-25T07:49:39.972Z,100.00
2022-12-25T07:52:08.603Z,100.00
2022-12-25T07:54:38.090Z,100.00
2022-12-25T07:57:07.887Z,100.00
2022-12-25T07:59:37.328Z,100.00
2022-12-25T08:02:07.496Z,100.00
2022-12-25T08:04:37.180Z,100.00
2022-12-25T08:07:06.646Z,100.00
2022-12-25T08:09:36.668Z,100.00
2022-12-25T08:12:06.464Z,100.00
2022-12-25T08:14:35.126Z,100.00
2022-12-25T08:17:04.923Z,100.00
2022-12-25T08:19:34.600Z,100.00
2022-12-25T08:22:04.241Z,100.00
2022-12-25T08:24:33.804Z,100.00
2022-12-25T08:27:03.029Z,100.00
2022-12-25T08:29:33.640Z,100.00
2022-12-25T08:32:03.557Z,100.00
2022-12-25T08:34:34.005Z,100.00
2022-12-25T08:37:03.560Z,100.00
2022-12-25T08:39:32.441Z,100.00
2022-12-25T08:42:01.151Z,100.00
2022-12-25T08:44:30.607Z,100.00
2022-12-25T08:46:59.226Z,100.00
2022-12-25T08:49:29.301Z,100.00
2022-12-25T08:51:58.030Z,100.00
2022-12-25T08:54:26.791Z,100.00
2022-12-25T08:57:02.333Z,100.00
2022-12-25T08:59:30.830Z,100.00
2022-12-25T09:02:00.455Z,100.00
2022-12-25T09:04:30.078Z,100.00
2022-12-25T09:06:59.716Z,100.00
2022-12-25T09:09:30.390Z,100.00
2022-12-25T09:12:00.046Z,100.00
2022-12-25T09:14:30.794Z,100.00
2022-12-25T09:17:00.272Z,100.00
2022-12-25T09:19:29.898Z,100.00
2022-12-25T09:21:59.374Z,100.00
2022-12-25T09:24:29.019Z,100.00
2022-12-25T09:26:59.709Z,100.00
2022-12-25T09:29:28.336Z,100.00
2022-12-25T09:31:57.900Z,100.00
2022-12-25T09:34:27.398Z,100.00
2022-12-25T09:36:56.932Z,100.00
2022-12-25T09:39:26.459Z,100.00
2022-12-25T09:42:07.475Z,100.00
2022-12-25T09:44:58.341Z,100.00
2022-12-25T09:47:34.185Z,100.00
2022-12-25T09:50:37.942Z,100.00
2022-12-25T09:53:41.033Z,100.00
2022-12-25T09:56:22.664Z,100.00
2022-12-25T09:58:53.608Z,100.00
2022-12-25T10:01:40.084Z,100.00
2022-12-25T10:04:43.461Z,100.00
2022-12-25T10:07:53.186Z,100.00
2022-12-25T10:10:49.908Z,100.00
2022-12-25T10:14:24.105Z,100.00
2022-12-25T10:17:35.487Z,100.00
2022-12-25T10:20:42.827Z,100.00
2022-12-25T10:23:47.239Z,100.00
2022-12-25T10:26:22.436Z,100.00
2022-12-25T10:29:19.696Z,100.00
2022-12-25T10:31:53.963Z,100.00
2022-12-25T10:34:27.813Z,100.00
2022-12-25T10:36:57.390Z,100.00
2022-12-25T10:39:27.302Z,100.00
2022-12-25T10:42:27.239Z,100.00
2022-12-25T10:45:08.522Z,100.00
2022-12-25T10:47:42.781Z,99.52
2022-12-25T10:50:24.525Z,99.01
2022-12-25T10:53:05.360Z,99.44
2022-12-25T10:55:35.145Z,97.60
2022-12-25T10:58:06.019Z,96.28
2022-12-25T11:00:35.482Z,98.11
2022-12-25T11:03:05.112Z,98.18
2022-12-25T11:05:37.145Z,98.59
2022-12-25T11:08:23.232Z,98.93
2022-12-25T11:11:19.552Z,96.92
2022-12-25T11:14:01.344Z,97.17
2022-12-25T11:16:40.373Z,95.58
2022-12-25T11:19:31.006Z,93.04
2022-12-25T11:22:04.046Z,91.91
2022-12-25T11:24:35.252Z,90.75
2022-12-25T11:27:07.103Z,90.63
2022-12-25T11:29:58.376Z,91.01
2022-12-25T11:32:46.370Z,91.96
2022-12-25T11:35:22.827Z,90.79
2022-12-25T11:37:53.647Z,90.30
2022-12-25T11:40:49.086Z,91.43
2022-12-25T11:43:46.865Z,92.25
2022-12-25T11:46:41.860Z,92.66
2022-12-25T11:49:19.938Z,92.82
2022-12-25T11:51:54.086Z,94.27
2022-12-25T11:54:32.448Z,95.98
2022-12-25T11:57:06.174Z,95.73
2022-12-25T11:59:56.451Z,96.33
2022-12-25T12:03:19.963Z,95.35
2022-12-25T12:06:02.796Z,94.32
2022-12-25T12:08:33.578Z,94.43
2022-12-25T12:11:41.247Z,94.70
2022-12-25T12:14:52.511Z,94.83
2022-12-25T12:17:21.444Z,94.62
2022-12-25T12:19:51.667Z,94.49
2022-12-25T12:22:29.027Z,94.66
2022-12-25T12:25:06.896Z,94.92
2022-12-25T12:27:41.719Z,93.21
2022-12-25T12:30:35.941Z,92.21
2022-12-25T12:33:08.131Z,91.77
2022-12-25T12:35:39.736Z,91.50
2022-12-25T12:38:19.231Z,90.98
2022-12-25T12:41:07.939Z,90.71
2022-12-25T12:43:58.246Z,90.72
2022-12-25T12:46:37.774Z,90.83
2022-12-25T12:49:29.627Z,90.00
2022-12-25T12:52:35.382Z,90.36
2022-12-25T12:55:13.383Z,90.00
2022-12-25T12:57:43.018Z,89.54
2022-12-25T13:00:21.370Z,88.38
2022-12-25T13:03:10.342Z,88.00
2022-12-25T13:06:01.610Z,88.75
2022-12-25T13:08:58.435Z,89.33
2022-12-25T13:11:38.931Z,88.49
2022-12-25T13:14:21.422Z,87.44
2022-12-25T13:16:53.939Z,87.22
2022-12-25T13:19:28.016Z,87.13
2022-12-25T13:22:05.045Z,86.84
2022-12-25T13:24:37.521Z,87.32
2022-12-25T13:27:32.571Z,88.02
2022-12-25T13:30:12.342Z,87.25
2022-12-25T13:32:44.567Z,88.29
2022-12-25T13:35:24.132Z,88.79
2022-12-25T13:37:54.873Z,88.56
2022-12-25T13:40:28.807Z,90.17
2022-12-25T13:43:01.463Z,91.54
2022-12-25T13:45:34.133Z,91.43
2022-12-25T13:48:16.372Z,91.18
2022-12-25T13:50:48.628Z,91.17
2022-12-25T13:53:18.709Z,92.27
2022-12-25T13:55:55.283Z,92.40
2022-12-25T13:58:37.293Z,93.04
2022-12-25T14:01:07.553Z,92.53
2022-12-25T14:03:45.569Z,93.17
2022-12-25T14:06:24.059Z,94.65
2022-12-25T14:08:57.893Z,94.73
2022-12-25T14:11:30.589Z,95.17
2022-12-25T14:14:12.107Z,95.99
2022-12-25T14:16:44.810Z,96.30
2022-12-25T14:19:42.741Z,97.05
2022-12-25T14:22:21.919Z,98.65
2022-12-25T14:24:51.599Z,99.93
2022-12-25T14:27:27.852Z,100.00
2022-12-25T14:30:02.618Z,99.12
2022-12-25T14:32:42.497Z,98.34
2022-12-25T14:35:18.185Z,100.00
2022-12-25T14:38:00.184Z,100.00
2022-12-25T14:40:32.958Z,100.00
2022-12-25T14:43:28.402Z,100.00
2022-12-25T14:46:03.037Z,100.00
2022-12-25T14:48:34.141Z,100.00
2022-12-25T14:51:18.784Z,100.00
2022-12-25T14:53:55.091Z,100.00
2022-12-25T14:56:28.095Z,100.00
2022-12-25T14:59:01.131Z,100.00
2022-12-25T15:01:37.165Z,100.00
2022-12-25T15:04:16.917Z,100.00
2022-12-25T15:07:09.670Z,100.00
2022-12-25T15:09:40.731Z,100.00
2022-12-25T15:12:09.295Z,100.00
2022-12-25T15:14:40.379Z,100.00
2022-12-25T15:17:26.931Z,100.00
2022-12-25T15:20:00.539Z,100.00
2022-12-25T15:22:47.750Z,100.00
2022-12-25T15:25:21.062Z,100.00
2022-12-25T15:27:50.561Z,100.00
2022-12-25T15:30:19.486Z,100.00
2022-12-25T15:32:49.059Z,100.00
2022-12-25T15:35:22.838Z,100.00
2022-12-25T15:37:52.253Z,100.00
2022-12-25T15:40:22.763Z,100.00
2022-12-25T15:42:56.371Z,100.00
2022-12-25T15:45:30.621Z,100.00
2022-12-25T15:47:59.428Z,100.00
2022-12-25T15:50:29.498Z,100.00
2022-12-25T15:52:59.137Z,100.00
2022-12-25T15:55:28.595Z,100.00
2022-12-25T15:57:58.238Z,100.00
2022-12-25T16:00:27.778Z,100.00
2022-12-25T16:02:57.460Z,100.00
2022-12-25T16:05:27.971Z,100.00
2022-12-25T16:07:57.465Z,100.00
2022-12-25T16:10:27.182Z,100.00
2022-12-25T16:12:55.859Z,100.00
2022-12-25T16:15:25.345Z,100.00
2022-12-25T16:17:54.768Z,100.00
2022-12-25T16:20:24.481Z,100.00
2022-12-25T16:22:53.134Z,100.00
2022-12-25T16:25:22.328Z,100.00
2022-12-25T16:27:51.803Z,100.00
2022-12-25T16:30:21.406Z,100.00
2022-12-25T16:32:51.877Z,100.00
2022-12-25T16:35:23.174Z,100.00
2022-12-25T16:37:52.691Z,100.00
2022-12-25T16:40:22.288Z,100.00
2022-12-25T16:42:50.980Z,100.00
2022-12-25T16:45:20.446Z,100.00
2022-12-25T16:47:50.598Z,100.00
2022-12-25T16:50:19.269Z,100.00
2022-12-25T16:52:48.793Z,100.00
2022-12-25T16:55:17.573Z,100.00
2022-12-25T16:57:51.100Z,100.00
2022-12-25T17:00:21.900Z,100.00
2022-12-25T17:02:50.944Z,100.00
2022-12-25T17:05:20.536Z,100.00
2022-12-25T17:07:50.422Z,100.00
2022-12-25T17:10:21.447Z,100.00
2022-12-25T17:12:52.131Z,100.00
2022-12-25T17:15:20.784Z,100.00
2022-12-25T17:17:50.201Z,100.00
2022-12-25T17:20:20.716Z,100.00
2022-12-25T17:22:50.283Z,100.00
2022-12-25T17:25:20.625Z,100.00
2022-12-25T17:27:51.498Z,100.00
2022-12-25T17:30:20.923Z,100.00
2022-12-25T17:32:51.268Z,100.00
2022-12-25T17:35:23.796Z,100.00
2022-12-25T17:37:53.702Z,100.00
2022-12-25T17:40:24.040Z,100.00
2022-12-25T17:42:53.024Z,100.00
2022-12-25T17:45:21.815Z,100.00
2022-12-25T17:47:55.137Z,100.00
2022-12-25T17:50:25.884Z,100.00
2022-12-25T17:52:55.300Z,100.00
2022-12-25T17:55:24.748Z,100.00
2022-12-25T17:57:54.256Z,100.00
2022-12-25T18:00:23.814Z,100.00
2022-12-25T18:02:53.428Z,100.00
2022-12-25T18:05:23.093Z,100.00
2022-12-25T18:07:52.656Z,100.00
2022-12-25T18:10:22.124Z,100.00
2022-12-25T18:12:51.620Z,100.00
2022-12-25T18:15:21.501Z,100.00
2022-12-25T18:17:50.959Z,100.00
2022-12-25T18:20:20.465Z,100.00
2022-12-25T18:22:49.750Z,100.00
2022-12-25T18:25:19.257Z,100.00
2022-12-25T18:27:48.844Z,100.00
2022-12-25T18:30:18.935Z,100.00
2022-12-25T18:32:48.422Z,100.00
2022-12-25T18:35:18.019Z,100.00
2022-12-25T18:37:48.958Z,100.00
2022-12-25T18:40:18.663Z,100.00
2022-12-25T18:42:52.911Z,100.00
2022-12-25T18:45:24.981Z,100.00
2022-12-25T18:47:54.536Z,100.00
2022-12-25T18:50:23.956Z,100.00
2022-12-25T18:52:53.365Z,100.00
2022-12-25T18:55:22.065Z,100.00
2022-12-25T18:57:52.837Z,100.00
2022-12-25T19:00:23.279Z,100.00
2022-12-25T19:02:59.106Z,100.00
2022-12-25T19:05:28.842Z,100.00
2022-12-25T19:07:58.288Z,100.00
2022-12-25T19:10:27.756Z,100.00
2022-12-25T19:12:57.213Z,100.00
2022-12-25T19:15:26.742Z,100.00
2022-12-25T19:17:56.192Z,100.00
2022-12-25T19:20:25.691Z,100.00
2022-12-25T19:22:55.178Z,100.00
2022-12-25T19:25:26.003Z,100.00
2022-12-25T19:27:55.433Z,100.00
2022-12-25T19:30:24.896Z,100.00
2022-12-25T19:32:53.651Z,100.00
2022-12-25T19:35:23.032Z,100.00
2022-12-25T19:37:52.558Z,100.00
2022-12-25T19:40:21.281Z,100.00
2022-12-25T19:42:50.682Z,100.00
2022-12-25T19:45:20.197Z,100.00
2022-12-25T19:47:49.592Z,100.00
2022-12-25T19:50:19.014Z,100.00
2022-12-25T19:52:48.471Z,100.00
2022-12-25T19:55:20.209Z,100.00
2022-12-25T19:57:50.435Z,100.00
2022-12-25T20:00:20.066Z,100.00
2022-12-25T20:02:48.983Z,100.00
2022-12-25T20:05:18.581Z,100.00
2022-12-25T20:07:48.029Z,100.00
2022-12-25T20:10:17.476Z,100.00
2022-12-25T20:12:47.157Z,100.00
2022-12-25T20:15:16.957Z,100.00
2022-12-25T20:17:49.489Z,100.00
2022-12-25T20:20:18.995Z,100.00
2022-12-25T20:22:48.527Z,100.00
2022-12-25T20:25:18.364Z,100.00
2022-12-25T20:27:48.002Z,100.00
2022-12-25T20:30:19.380Z,100.00
2022-12-25T20:32:50.687Z,100.00
2022-12-25T20:35:20.387Z,100.00
2022-12-25T20:37:50.119Z,100.00
2022-12-25T20:40:19.659Z,100.00
2022-12-25T20:42:49.163Z,100.00
2022-12-25T20:45:18.671Z,100.00
2022-12-25T20:47:48.175Z,100.00
2022-12-25T20:50:18.024Z,100.00
2022-12-25T20:52:48.528Z,100.00
2022-12-25T20:55:18.169Z,100.00
2022-12-25T20:57:49.094Z,100.00
2022-12-25T21:00:20.304Z,100.00
2022-12-25T21:02:50.099Z,100.00
2022-12-25T21:05:19.870Z,100.00
2022-12-25T21:07:49.363Z,100.00
2022-12-25T21:10:18.918Z,100.00
2022-12-25T21:12:48.427Z,100.00
2022-12-25T21:15:18.209Z,100.00
2022-12-25T21:17:47.728Z,100.00
2022-12-25T21:20:17.528Z,100.00
2022-12-25T21:22:48.054Z,100.00
2022-12-25T21:25:20.134Z,100.00
2022-12-25T21:27:49.549Z,100.00
2022-12-25T21:30:19.446Z,100.00
2022-12-25T21:33:07.321Z,100.00
2022-12-25T21:35:38.051Z,100.00
2022-12-25T21:38:07.580Z,100.00
2022-12-25T21:40:38.559Z,100.00
2022-12-25T21:43:07.753Z,100.00
2022-12-25T21:45:37.263Z,100.00
2022-12-25T21:48:07.031Z,100.00
2022-12-25T21:50:56.160Z,100.00
2022-12-25T21:53:25.700Z,100.00
2022-12-25T21:56:02.660Z,100.00
2022-12-25T21:58:32.597Z,100.00
2022-12-25T22:01:04.520Z,100.00
2022-12-25T22:03:34.166Z,100.00
2022-12-25T22:06:22.507Z,100.00
2022-12-25T22:08:52.120Z,100.00
2022-12-25T22:11:40.039Z,100.00
2022-12-25T22:14:52.778Z,100.00
2022-12-25T22:17:53.971Z,100.00
2022-12-25T22:20:34.735Z,100.00
2022-12-25T22:23:05.639Z,100.00
2022-12-25T22:25:35.169Z,100.00
2022-12-25T22:28:04.865Z,100.00
2022-12-25T22:30:34.344Z,100.00
2022-12-25T22:33:03.975Z,100.00
2022-12-25T22:35:33.491Z,100.00
2022-12-25T22:38:02.206Z,100.00
2022-12-25T22:40:31.753Z,100.00
2022-12-25T22:43:01.185Z,100.00
2022-12-25T22:45:30.670Z,100.00
2022-12-25T22:48:00.145Z,100.00
2022-12-25T22:50:29.642Z,100.00
2022-12-25T22:52:59.123Z,100.00
2022-12-25T22:55:28.600Z,100.00
2022-12-25T22:57:58.442Z,100.00
2022-12-25T23:00:27.947Z,100.00
2022-12-25T23:02:57.570Z,100.00
2022-12-25T23:05:27.216Z,100.00
2022-12-25T23:07:56.787Z,100.00
2022-12-25T23:10:25.534Z,100.00
2022-12-25T23:13:13.327Z,100.00
2022-12-25T23:15:46.654Z,100.00
2022-12-25T23:18:34.789Z,100.00
2022-12-25T23:21:23.278Z,100.00
2022-12-25T23:24:11.280Z,100.00
2022-12-25T23:26:40.816Z,100.00
2022-12-25T23:29:29.332Z,100.00
2022-12-25T23:31:59.493Z,100.00
2022-12-25T23:34:29.085Z,100.00
2022-12-25T23:36:59.045Z,100.00
2022-12-25T23:39:28.873Z,100.00
2022-12-25T23:41:58.745Z,100.00
2022-12-25T23:44:28.916Z,100.00
2022-12-25T23:46:58.600Z,100.00
2022-12-25T23:49:28.880Z,100.00
2022-12-25T23:51:58.553Z,100.00
2022-12-25T23:54:31.362Z,100.00
2022-12-25T23:57:01.152Z,100.00
2022-12-25T23:59:31.715Z,100.00
